Time;durP1;ratioP1;P1;durP2;ratioP2;P2;SDS_P1;SDS_P2;PMS_P1;PMS_P2;Temp;Humidity;BMP_temperature;BMP_pressure;BME280_temperature;BME280_humidity;BME280_pressure;Samples;Min_cycle;Max_cycle;Signal;HPM_P1;HPM_P2
2024/03/18 00:00:56;;;;;;;8.00;3.63;;;;;;;7.56;57.22;100425.22;5135615;27;20191;-46
2024/03/18 00:03:25;;;;;;;5.32;3.30;;;;;;;7.43;57.41;100417.81;5136405;27;20047;-46
2024/03/18 00:05:53;;;;;;;7.53;3.42;;;;;;;7.57;57.47;100421.63;5136700;27;20120;-49
2024/03/18 00:08:20;;;;;;;6.15;3.30;;;;;;;7.65;57.33;100422.16;5135513;27;20423;-47
2024/03/18 00:10:47;;;;;;;7.70;3.67;;;;;;;7.58;57.23;100421.56;5135929;27;20046;-46
2024/03/18 00:13:14;;;;;;;8.27;3.53;;;;;;;7.69;56.99;100418.41;5135283;27;20112;-46
2024/03/18 00:15:43;;;;;;;6.93;3.35;;;;;;;7.69;56.82;100413.09;5135290;27;20047;-46
2024/03/18 00:18:10;;;;;;;7.55;3.50;;;;;;;7.59;57.28;100417.09;5135045;27;20047;-46
2024/03/18 00:20:37;;;;;;;7.72;3.53;;;;;;;7.62;57.01;100420.47;5135104;27;20043;-45
2024/03/18 00:23:04;;;;;;;7.63;3.90;;;;;;;7.73;57.84;100404.06;5135201;27;20053;-46
2024/03/18 00:25:32;;;;;;;6.03;3.30;;;;;;;7.66;56.96;100403.50;5134551;27;20322;-46
2024/03/18 00:27:59;;;;;;;8.18;3.72;;;;;;;7.59;57.30;100407.34;5134639;27;20460;-46
2024/03/18 00:30:27;;;;;;;8.40;3.75;;;;;;;7.58;56.71;100410.06;5134537;27;20092;-46
2024/03/18 00:32:55;;;;;;;9.00;3.50;;;;;;;7.55;57.04;100410.22;5134376;27;20507;-48
2024/03/18 00:35:23;;;;;;;7.80;3.50;;;;;;;7.59;57.56;100411.78;5134880;27;20047;-46
2024/03/18 00:37:50;;;;;;;8.23;3.72;;;;;;;7.56;58.36;100411.94;5134262;27;20110;-44
2024/03/18 00:40:18;;;;;;;4.70;3.05;;;;;;;7.44;57.10;100403.59;5134331;27;20512;-46
2024/03/18 00:42:44;;;;;;;7.45;3.50;;;;;;;7.31;57.68;100401.56;5134017;27;20043;-46
2024/03/18 00:45:14;;;;;;;8.02;3.75;;;;;;;7.60;57.67;100410.84;5134078;27;20061;-46
2024/03/18 00:47:41;;;;;;;7.38;4.05;;;;;;;7.58;57.31;100407.41;5133665;27;20046;-45
2024/03/18 00:50:11;;;;;;;5.90;3.35;;;;;;;7.65;57.06;100398.25;5134315;27;20144;-44
2024/03/18 00:52:39;;;;;;;9.57;3.50;;;;;;;7.52;56.96;100399.72;5134239;27;20103;-45
2024/03/18 00:55:10;;;;;;;7.82;3.47;;;;;;;7.64;57.12;100401.84;5133682;27;20123;-45
2024/03/18 00:57:38;;;;;;;7.05;3.33;;;;;;;7.73;57.16;100391.66;5133674;27;20441;-47
2024/03/18 01:00:11;;;;;;;6.90;3.30;;;;;;;7.62;56.58;100390.41;5134239;27;20149;-46
2024/03/18 01:02:40;;;;;;;13.75;3.80;;;;;;;7.57;56.84;100397.72;5133336;27;20051;-45
2024/03/18 01:05:10;;;;;;;5.88;3.08;;;;;;;7.41;57.02;100395.75;5133646;27;20050;-47
2024/03/18 01:07:40;;;;;;;8.45;3.72;;;;;;;7.56;57.16;100396.88;5134063;27;20051;-45
2024/03/18 01:10:09;;;;;;;7.80;3.17;;;;;;;7.55;57.06;100396.94;5133816;27;20043;-46
2024/03/18 01:12:36;;;;;;;8.27;3.28;;;;;;;7.50;57.02;100390.97;5134513;27;20054;-49
2024/03/18 01:15:05;;;;;;;8.13;3.70;;;;;;;7.36;56.92;100383.66;5133870;27;20043;-45
2024/03/18 01:17:32;;;;;;;6.38;3.53;;;;;;;7.28;57.32;100386.63;5133600;27;20333;-46
2024/03/18 01:20:00;;;;;;;9.05;3.53;;;;;;;7.22;57.39;100373.63;5134133;27;20096;-45
2024/03/18 01:22:27;;;;;;;8.95;3.45;;;;;;;7.44;57.16;100377.06;5134464;27;20051;-46
2024/03/18 01:24:59;;;;;;;7.32;3.40;;;;;;;7.29;57.49;100377.75;5133683;27;20055;-46
2024/03/18 01:27:26;;;;;;;8.02;3.58;;;;;;;7.34;58.55;100373.09;5133479;27;20051;-46
2024/03/18 01:29:53;;;;;;;8.15;3.60;;;;;;;7.25;57.59;100380.63;5133317;27;20172;-46
2024/03/18 01:32:22;;;;;;;7.38;3.97;;;;;;;7.21;57.88;100377.22;5133276;27;20045;-45
2024/03/18 01:34:50;;;;;;;7.82;3.58;;;;;;;7.16;57.91;100373.91;5133490;27;20043;-46
2024/03/18 01:37:17;;;;;;;7.45;3.30;;;;;;;7.14;58.36;100383.72;5133467;27;20055;-46
2024/03/18 01:39:44;;;;;;;8.95;3.70;;;;;;;7.31;58.31;100389.13;5133350;27;20047;-45
2024/03/18 01:42:13;;;;;;;7.18;3.28;;;;;;;7.20;58.24;100387.91;5133114;27;20043;-46
2024/03/18 01:44:52;;;;;;;8.88;3.85;;;;;;;7.22;58.91;100386.91;5132960;27;20053;-45
2024/03/18 01:47:20;;;;;;;9.93;3.80;;;;;;;7.23;58.51;100385.97;5132634;27;20181;-46
2024/03/18 01:49:47;;;;;;;11.40;4.13;;;;;;;7.36;59.03;100384.50;5133967;27;20043;-45
2024/03/18 01:52:15;;;;;;;6.40;3.70;;;;;;;7.43;59.12;100388.63;5133471;27;20507;-46
2024/03/18 01:54:42;;;;;;;7.75;3.75;;;;;;;7.27;58.31;100389.38;5133001;27;20103;-47
2024/03/18 01:57:09;;;;;;;8.90;3.95;;;;;;;7.06;58.39;100380.56;5133278;27;20505;-46
2024/03/18 01:59:38;;;;;;;7.70;3.83;;;;;;;7.09;58.71;100380.41;5132874;27;20482;-45
2024/03/18 02:02:06;;;;;;;6.88;3.83;;;;;;;6.99;58.61;100379.09;5133189;27;20097;-49
2024/03/18 02:04:33;;;;;;;7.72;4.45;;;;;;;6.86;59.00;100384.06;5132797;27;20075;-45
2024/03/18 02:07:01;;;;;;;8.18;3.88;;;;;;;7.00;58.78;100386.13;5132353;27;20055;-45
2024/03/18 02:09:30;;;;;;;8.35;3.80;;;;;;;7.09;58.42;100380.41;5131520;27;20091;-47
2024/03/18 02:11:57;;;;;;;8.23;4.07;;;;;;;6.96;58.72;100389.84;5133010;27;20047;-46
2024/03/18 02:14:24;;;;;;;7.70;3.53;;;;;;;7.06;58.81;100391.16;5132271;27;20074;-45
2024/03/18 02:16:53;;;;;;;7.13;3.67;;;;;;;7.06;58.79;100396.47;5132331;27;20490;-52
2024/03/18 02:19:21;;;;;;;7.20;3.80;;;;;;;6.98;58.96;100385.34;5133076;27;20479;-46
2024/03/18 02:21:48;;;;;;;7.22;3.88;;;;;;;6.78;59.79;100391.50;5133481;27;20058;-45
2024/03/18 02:24:18;;;;;;;8.07;3.95;;;;;;;6.86;59.85;100386.72;5133141;27;20046;-45
2024/03/18 02:26:45;;;;;;;7.38;4.00;;;;;;;6.83;60.25;100385.03;5131547;27;20043;-45
2024/03/18 02:29:12;;;;;;;11.35;4.10;;;;;;;6.78;60.57;100380.88;5131265;27;20072;-46
2024/03/18 02:31:40;;;;;;;8.25;4.20;;;;;;;6.95;60.15;100372.19;5131563;27;20039;-45
2024/03/18 02:34:08;;;;;;;7.50;4.25;;;;;;;6.95;60.21;100373.06;5131388;27;20043;-45
2024/03/18 02:36:35;;;;;;;8.07;3.83;;;;;;;6.63;60.70;100371.78;5130889;27;20402;-49
2024/03/18 02:39:02;;;;;;;12.32;4.43;;;;;;;6.54;61.00;100369.50;5131100;27;20119;-44
2024/03/18 02:41:31;;;;;;;9.68;4.35;;;;;;;6.56;61.41;100367.66;5130975;27;20488;-44
2024/03/18 02:43:58;;;;;;;11.10;4.20;;;;;;;6.59;61.53;100365.75;5131182;27;20043;-45
2024/03/18 02:46:25;;;;;;;8.05;3.90;;;;;;;6.67;61.19;100361.94;5130912;27;20132;-45
2024/03/18 02:48:53;;;;;;;9.35;4.30;;;;;;;6.76;61.45;100353.59;5131470;27;20039;-47
2024/03/18 02:51:20;;;;;;;8.25;4.47;;;;;;;6.84;60.69;100354.09;5131344;27;20047;-45
2024/03/18 02:53:47;;;;;;;10.85;4.00;;;;;;;6.84;60.70;100354.94;5130759;27;20051;-45
2024/03/18 02:56:15;;;;;;;7.57;4.20;;;;;;;6.80;60.77;100356.03;5131014;27;20039;-45
2024/03/18 02:58:43;;;;;;;8.32;4.40;;;;;;;6.82;61.35;100356.81;5130879;28;20145;-46
2024/03/18 03:01:11;;;;;;;10.10;4.45;;;;;;;6.66;61.34;100355.75;5131040;27;20055;-48
2024/03/18 03:03:38;;;;;;;7.70;4.60;;;;;;;6.75;61.42;100359.78;5130723;28;20475;-46
2024/03/18 03:06:08;;;;;;;9.43;4.25;;;;;;;6.58;63.03;100348.13;5130545;27;20047;-45
2024/03/18 03:08:36;;;;;;;9.23;3.85;;;;;;;6.60;62.68;100346.28;5130981;28;20103;-47
2024/03/18 03:11:05;;;;;;;8.77;4.47;;;;;;;6.63;63.18;100349.72;5130593;27;20396;-45
2024/03/18 03:13:32;;;;;;;8.82;4.45;;;;;;;6.74;62.86;100353.63;5130589;27;20065;-46
2024/03/18 03:16:01;;;;;;;7.97;4.32;;;;;;;6.75;62.62;100344.75;5130721;28;20050;-42
2024/03/18 03:18:29;;;;;;;9.18;4.20;;;;;;;6.79;62.98;100346.34;5130554;27;20121;-45
2024/03/18 03:20:58;;;;;;;9.25;4.47;;;;;;;6.76;62.65;100346.50;5131622;27;20395;-50
2024/03/18 03:23:25;;;;;;;7.53;4.38;;;;;;;6.75;63.02;100343.88;5134688;27;20050;-45
2024/03/18 03:25:52;;;;;;;8.50;4.40;;;;;;;6.80;63.25;100336.59;5134736;27;20134;-46
2024/03/18 03:28:19;;;;;;;8.88;4.30;;;;;;;6.74;63.80;100342.16;5134526;27;20146;-45
2024/03/18 03:30:47;;;;;;;10.40;4.40;;;;;;;6.72;63.52;100336.94;5134527;27;20039;-45
2024/03/18 03:33:15;;;;;;;11.43;5.28;;;;;;;6.58;62.95;100334.88;5134367;27;20096;-46
2024/03/18 03:35:43;;;;;;;9.70;4.70;;;;;;;6.60;63.66;100334.81;5134596;27;20053;-45
2024/03/18 03:38:10;;;;;;;9.10;4.45;;;;;;;6.63;63.63;100339.97;5134630;27;20043;-45
2024/03/18 03:40:37;;;;;;;12.23;5.07;;;;;;;6.61;64.12;100344.47;5134153;27;20051;-46
2024/03/18 03:43:04;;;;;;;7.70;4.25;;;;;;;6.60;63.97;100345.41;5134689;27;20047;-46
2024/03/18 03:45:32;;;;;;;8.68;4.35;;;;;;;6.67;64.26;100346.03;5134577;27;20054;-45
2024/03/18 03:47:59;;;;;;;9.63;5.20;;;;;;;6.68;63.72;100347.75;5134000;27;20053;-46
2024/03/18 03:50:28;;;;;;;8.55;4.25;;;;;;;6.62;62.93;100348.00;5134597;27;20039;-46
2024/03/18 03:52:55;;;;;;;8.60;4.05;;;;;;;6.66;63.53;100345.16;5134787;27;20058;-46
2024/03/18 03:55:23;;;;;;;9.48;4.07;;;;;;;6.64;63.53;100349.63;5135144;27;20043;-46
2024/03/18 03:57:50;;;;;;;7.95;4.82;;;;;;;6.58;63.53;100348.13;5134849;27;20039;-45
2024/03/18 04:00:19;;;;;;;8.52;4.68;;;;;;;6.56;63.82;100357.94;5135010;27;20065;-44
2024/03/18 04:02:46;;;;;;;7.88;4.53;;;;;;;6.65;64.04;100356.66;5135165;27;20055;-46
2024/03/18 04:05:14;;;;;;;8.05;4.13;;;;;;;6.67;63.59;100346.88;5135383;27;20147;-46
2024/03/18 04:07:42;;;;;;;10.93;4.68;;;;;;;6.55;63.00;100352.69;5135590;27;20047;-47
2024/03/18 04:10:10;;;;;;;7.57;4.60;;;;;;;6.53;63.10;100350.09;5134984;27;20114;-46
2024/03/18 04:12:37;;;;;;;8.25;4.75;;;;;;;6.39;63.21;100351.63;5134389;27;20066;-44
2024/03/18 04:15:07;;;;;;;9.82;4.90;;;;;;;6.29;63.55;100351.13;5135964;27;20047;-45
2024/03/18 04:17:35;;;;;;;10.48;4.68;;;;;;;6.40;63.37;100351.53;5135848;27;20051;-48
2024/03/18 04:20:05;;;;;;;10.90;5.20;;;;;;;6.35;64.88;100344.69;5135638;27;20126;-54
2024/03/18 04:22:33;;;;;;;10.48;4.78;;;;;;;6.24;64.34;100351.31;5135194;27;20043;-47
2024/03/18 04:25:02;;;;;;;8.60;4.45;;;;;;;6.20;64.47;100351.50;5134425;27;20100;-46
2024/03/18 04:27:30;;;;;;;11.63;4.43;;;;;;;6.13;65.54;100352.66;5134363;27;20122;-46
2024/03/18 04:29:57;;;;;;;11.45;5.30;;;;;;;6.06;65.46;100353.81;5134656;27;20138;-44
2024/03/18 04:32:24;;;;;;;8.10;4.55;;;;;;;6.18;65.64;100356.88;5134337;27;20040;-46
2024/03/18 04:34:52;;;;;;;10.52;4.70;;;;;;;6.21;64.99;100358.53;5134890;27;20110;-47
2024/03/18 04:37:19;;;;;;;12.95;4.85;;;;;;;6.23;65.40;100357.53;5134828;27;20184;-47
2024/03/18 04:39:46;;;;;;;11.32;5.35;;;;;;;6.15;65.94;100356.97;5134607;27;20043;-47
2024/03/18 04:42:15;;;;;;;8.65;5.15;;;;;;;6.06;66.25;100359.13;5135959;27;20085;-46
2024/03/18 04:44:43;;;;;;;10.45;4.82;;;;;;;6.16;65.86;100355.19;5136213;27;20039;-50
2024/03/18 04:47:11;;;;;;;7.80;4.63;;;;;;;6.18;65.69;100359.50;5135689;27;20350;-47
2024/03/18 04:49:39;;;;;;;7.97;4.75;;;;;;;6.26;65.65;100354.75;5135904;27;20043;-45
2024/03/18 04:52:06;;;;;;;10.52;5.03;;;;;;;6.19;64.46;100355.06;5135360;27;20088;-45
2024/03/18 04:54:33;;;;;;;8.73;4.45;;;;;;;6.32;64.63;100356.28;5134292;27;20039;-46
2024/03/18 04:57:01;;;;;;;11.55;5.10;;;;;;;6.10;64.32;100355.44;5134360;27;20558;-47
2024/03/18 04:59:29;;;;;;;11.85;5.18;;;;;;;6.11;64.66;100350.09;5133795;27;20506;-46
2024/03/18 05:01:57;;;;;;;16.40;5.68;;;;;;;6.05;64.64;100357.41;5133783;27;20486;-51
2024/03/18 05:04:25;;;;;;;11.43;4.60;;;;;;;6.10;64.47;100356.31;5134109;27;20050;-45
2024/03/18 05:06:53;;;;;;;9.65;5.30;;;;;;;6.12;65.45;100362.41;5134046;27;20047;-45
2024/03/18 05:09:21;;;;;;;8.90;4.90;;;;;;;6.18;64.73;100362.16;5134873;27;20483;-44
2024/03/18 05:11:48;;;;;;;8.45;5.03;;;;;;;6.31;64.10;100366.03;5134152;27;20047;-45
2024/03/18 05:14:15;;;;;;;10.23;5.47;;;;;;;6.32;64.74;100372.19;5133708;27;20058;-46
2024/03/18 05:16:45;;;;;;;11.40;4.90;;;;;;;6.14;64.25;100368.50;5134093;27;20043;-47
2024/03/18 05:19:12;;;;;;;10.80;5.38;;;;;;;6.28;64.00;100371.47;5133692;27;20043;-46
2024/03/18 05:21:39;;;;;;;9.65;5.07;;;;;;;6.40;63.55;100372.75;5133786;27;20051;-47
2024/03/18 05:24:07;;;;;;;11.30;5.18;;;;;;;6.29;63.31;100373.19;5135503;27;20065;-47
2024/03/18 05:26:34;;;;;;;8.13;5.10;;;;;;;6.50;64.29;100374.09;5135429;27;20048;-47
2024/03/18 05:29:01;;;;;;;11.20;5.60;;;;;;;6.49;63.29;100375.00;5134430;27;20477;-46
2024/03/18 05:31:30;;;;;;;10.50;5.70;;;;;;;6.68;62.65;100369.81;5133966;27;20062;-45
2024/03/18 05:34:02;;;;;;;10.40;5.43;;;;;;;6.80;62.63;100369.28;5134632;27;20039;-46
2024/03/18 05:36:29;;;;;;;11.23;5.50;;;;;;;7.00;62.77;100375.50;5133904;27;20053;-46
2024/03/18 05:38:57;;;;;;;8.40;5.47;;;;;;;7.10;62.74;100374.19;5133474;27;20138;-46
2024/03/18 05:41:24;;;;;;;12.25;5.20;;;;;;;7.06;61.68;100380.56;5133096;27;20043;-45
2024/03/18 05:43:52;;;;;;;10.23;5.30;;;;;;;6.83;61.82;100377.09;5132470;27;20074;-45
2024/03/18 05:46:19;;;;;;;12.32;5.85;;;;;;;6.86;61.90;100378.78;5132900;27;20430;-45
2024/03/18 05:48:47;;;;;;;12.20;6.05;;;;;;;6.93;61.96;100380.22;5132150;27;20043;-46
2024/03/18 05:51:16;;;;;;;13.68;6.13;;;;;;;7.05;61.57;100384.16;5132346;27;20043;-45
2024/03/18 05:53:43;;;;;;;13.35;6.05;;;;;;;6.77;62.02;100382.69;5135727;27;20043;-46
2024/03/18 05:56:11;;;;;;;10.10;5.43;;;;;;;6.92;61.67;100385.59;5135694;27;20103;-45
2024/03/18 05:58:39;;;;;;;11.38;5.80;;;;;;;6.96;61.86;100389.84;5134841;27;20047;-46
2024/03/18 06:01:10;;;;;;;8.90;5.65;;;;;;;6.94;61.50;100392.53;5134150;27;20043;-46
2024/03/18 06:03:37;;;;;;;12.00;5.28;;;;;;;6.75;62.26;100391.59;5133813;27;20039;-47
2024/03/18 06:06:06;;;;;;;12.93;5.75;;;;;;;6.84;62.07;100394.72;5133125;27;20058;-46
2024/03/18 06:08:35;;;;;;;9.15;5.60;;;;;;;6.83;62.36;100394.78;5133186;27;20072;-45
2024/03/18 06:11:03;;;;;;;10.15;5.72;;;;;;;6.83;63.43;100384.19;5131754;27;20051;-45
2024/03/18 06:13:30;;;;;;;13.32;6.13;;;;;;;7.01;63.28;100385.19;5131147;27;20058;-45
2024/03/18 06:15:58;;;;;;;12.82;6.85;;;;;;;7.24;62.91;100386.81;5130798;27;20047;-46
2024/03/18 06:18:26;;;;;;;12.63;6.32;;;;;;;7.19;63.55;100381.72;5130938;27;20051;-46
2024/03/18 06:20:55;;;;;;;15.68;6.43;;;;;;;7.23;63.08;100382.44;5131342;27;20063;-45
2024/03/18 06:23:25;;;;;;;12.77;6.57;;;;;;;7.35;62.81;100377.47;5130387;27;20067;-47
2024/03/18 06:25:59;;;;;;;11.95;6.18;;;;;;;7.49;63.09;100368.88;5131869;27;20062;-46
2024/03/18 06:28:28;;;;;;;14.85;6.10;;;;;;;7.51;62.08;100366.16;5129613;27;20057;-45
2024/03/18 06:30:56;;;;;;;10.27;5.50;;;;;;;7.76;61.15;100364.09;5131042;27;20047;-46
2024/03/18 06:33:24;;;;;;;14.55;5.75;;;;;;;7.59;59.71;100359.56;5131377;27;20051;-46
2024/03/18 06:35:54;;;;;;;14.85;5.82;;;;;;;7.50;60.10;100349.38;5131802;27;20047;-46
2024/03/18 06:38:21;;;;;;;14.02;6.32;;;;;;;7.28;61.60;100354.78;5131388;27;20043;-46
2024/03/18 06:40:49;;;;;;;10.52;5.90;;;;;;;7.50;60.24;100349.38;5131910;27;20043;-45
2024/03/18 06:43:18;;;;;;;11.73;5.65;;;;;;;7.56;59.18;100345.59;5114690;28;20054;-46
2024/03/18 06:45:45;;;;;;;15.25;6.10;;;;;;;7.59;59.26;100342.78;5131879;27;20469;-46
2024/03/18 06:48:12;;;;;;;18.45;6.05;;;;;;;7.57;59.89;100342.00;5131267;27;20403;-45
2024/03/18 06:50:40;;;;;;;14.02;6.10;;;;;;;7.67;59.27;100337.97;5130870;27;20047;-46
2024/03/18 06:53:07;;;;;;;10.98;5.88;;;;;;;7.70;58.85;100337.81;5130889;27;20051;-47
2024/03/18 06:55:35;;;;;;;10.00;5.90;;;;;;;8.02;57.57;100337.16;5130739;27;20051;-45
2024/03/18 06:58:03;;;;;;;11.88;5.32;;;;;;;8.10;57.27;100338.56;5135316;27;20054;-45
2024/03/18 07:00:34;;;;;;;12.93;5.60;;;;;;;8.31;58.99;100337.53;5135460;27;20047;-46
2024/03/18 07:03:01;;;;;;;9.85;5.55;;;;;;;8.45;56.58;100340.41;5135326;27;20144;-46
2024/03/18 07:05:28;;;;;;;10.88;6.00;;;;;;;8.27;56.35;100328.84;5135123;27;20054;-44
2024/03/18 07:07:56;;;;;;;11.18;5.18;;;;;;;8.74;55.96;100338.06;5135776;27;20458;-47
2024/03/18 07:10:24;;;;;;;12.73;5.50;;;;;;;8.65;55.39;100330.56;5135963;27;20067;-46
2024/03/18 07:12:52;;;;;;;12.70;5.68;;;;;;;9.09;54.60;100330.94;5134984;27;20043;-47
2024/03/18 07:15:19;;;;;;;11.35;5.80;;;;;;;8.63;53.96;100332.44;5134629;27;20472;-46
2024/03/18 07:17:48;;;;;;;10.07;5.70;;;;;;;8.89;53.20;100337.28;5114694;28;20039;-46
2024/03/18 07:20:15;;;;;;;11.95;5.43;;;;;;;9.47;52.94;100336.88;5114628;28;20093;-46
2024/03/18 07:22:43;;;;;;;10.23;5.78;;;;;;;9.81;53.57;100332.31;5114292;28;20112;-49
2024/03/18 07:25:11;;;;;;;10.25;4.97;;;;;;;10.10;53.30;100328.88;5113760;28;20050;-44
2024/03/18 07:27:40;;;;;;;11.88;5.22;;;;;;;9.75;50.78;100331.75;5114223;28;20418;-45
2024/03/18 07:30:08;;;;;;;11.07;4.28;;;;;;;9.84;50.92;100326.81;5113871;28;20051;-45
2024/03/18 07:32:35;;;;;;;9.38;4.70;;;;;;;10.04;49.99;100319.44;5113962;28;20101;-45
2024/03/18 07:35:06;;;;;;;8.82;4.15;;;;;;;10.17;49.27;100321.41;5114030;28;20055;-46
2024/03/18 07:37:33;;;;;;;11.95;4.40;;;;;;;10.24;50.09;100326.34;5113473;28;20039;-45
2024/03/18 07:40:00;;;;;;;11.45;4.25;;;;;;;10.58;50.82;100317.22;5113532;28;20059;-47
2024/03/18 07:42:28;;;;;;;11.88;4.65;;;;;;;10.73;49.84;100325.28;5113870;28;20047;-46
2024/03/18 07:44:57;;;;;;;9.30;4.22;;;;;;;10.38;48.47;100322.00;5113226;28;20059;-44
2024/03/18 07:47:24;;;;;;;10.60;4.60;;;;;;;10.42;48.88;100328.84;5113571;28;20043;-47
2024/03/18 07:49:51;;;;;;;9.68;4.03;;;;;;;10.48;48.80;100320.50;5113327;28;20067;-46
2024/03/18 07:52:20;;;;;;;9.13;4.00;;;;;;;10.53;48.71;100323.78;5113164;28;20417;-47
2024/03/18 07:54:47;;;;;;;10.82;3.92;;;;;;;10.71;48.84;100308.47;5113008;28;20052;-46
2024/03/18 07:57:16;;;;;;;7.65;3.90;;;;;;;10.95;48.05;100320.34;5113225;28;20568;-45
2024/03/18 07:59:44;;;;;;;9.85;3.70;;;;;;;10.90;46.39;100317.09;5113157;28;20059;-45
2024/03/18 08:02:11;;;;;;;10.27;3.65;;;;;;;11.02;46.25;100318.19;5113124;28;20047;-46
2024/03/18 08:04:38;;;;;;;9.00;3.28;;;;;;;10.70;45.22;100318.28;5112758;28;20465;-44
2024/03/18 08:07:05;;;;;;;5.35;2.80;;;;;;;10.20;45.45;100316.75;5112388;28;20435;-43
2024/03/18 08:09:35;;;;;;;9.32;3.33;;;;;;;10.58;45.24;100311.88;5112845;28;20075;-44
2024/03/18 08:12:02;;;;;;;9.35;3.55;;;;;;;10.81;45.61;100307.84;5112785;28;20124;-44
2024/03/18 08:14:29;;;;;;;7.90;3.67;;;;;;;11.15;45.84;100295.97;5112482;28;20055;-45
2024/03/18 08:16:58;;;;;;;6.75;3.85;;;;;;;11.12;45.48;100300.66;5112436;28;20051;-45
2024/03/18 08:19:25;;;;;;;7.75;2.88;;;;;;;10.81;43.25;100313.19;5112610;28;20047;-45
2024/03/18 08:21:52;;;;;;;8.85;2.80;;;;;;;10.22;43.20;100317.53;5112503;28;20131;-44
2024/03/18 08:24:19;;;;;;;7.13;2.85;;;;;;;10.35;43.83;100309.72;5112410;28;20561;-45
2024/03/18 08:26:48;;;;;;;8.63;3.08;;;;;;;10.91;44.71;100299.28;5112530;28;20177;-46
2024/03/18 08:29:16;;;;;;;8.60;3.40;;;;;;;11.31;44.81;100306.56;5113699;28;20044;-45
2024/03/18 08:31:43;;;;;;;8.70;3.17;;;;;;;11.09;43.89;100301.66;5113111;28;20510;-46
2024/03/18 08:34:10;;;;;;;9.13;3.50;;;;;;;10.67;44.88;100299.81;5113204;28;20094;-45
2024/03/18 08:36:37;;;;;;;8.85;3.17;;;;;;;11.02;44.45;100292.34;5112942;28;20111;-47
2024/03/18 08:39:05;;;;;;;8.50;2.58;;;;;;;10.77;42.41;100300.97;5112254;28;20095;-45
2024/03/18 08:41:32;;;;;;;8.27;2.85;;;;;;;10.63;42.44;100298.28;5110904;28;20043;-45
2024/03/18 08:44:00;;;;;;;7.40;2.63;;;;;;;10.86;42.05;100295.06;5112066;28;20048;-46
2024/03/18 08:46:28;;;;;;;6.97;2.60;;;;;;;10.08;42.83;100304.13;5111676;28;20058;-45
2024/03/18 08:48:56;;;;;;;8.90;2.65;;;;;;;10.61;42.57;100292.16;5111677;28;20075;-45
2024/03/18 08:51:23;;;;;;;6.05;2.60;;;;;;;10.02;42.83;100291.16;5111637;28;20149;-45
2024/03/18 08:53:50;;;;;;;5.95;2.60;;;;;;;10.31;43.05;100293.00;5111958;28;20754;-44
2024/03/18 08:56:17;;;;;;;9.65;2.55;;;;;;;10.55;42.75;100284.53;5111777;28;20043;-44
2024/03/18 08:58:45;;;;;;;8.98;3.33;;;;;;;10.86;42.79;100279.06;5111796;28;20132;-45
2024/03/18 09:01:14;;;;;;;7.43;2.97;;;;;;;10.97;42.13;100274.88;5111356;28;20054;-45
2024/03/18 09:03:41;;;;;;;8.25;2.60;;;;;;;10.88;42.64;100273.63;5131335;27;20126;-43
2024/03/18 09:06:09;;;;;;;7.90;2.83;;;;;;;10.97;41.66;100273.06;5131638;27;20636;-45
2024/03/18 09:08:37;;;;;;;7.78;3.05;;;;;;;10.89;41.83;100268.19;5132938;27;20035;-44
2024/03/18 09:11:05;;;;;;;6.65;2.55;;;;;;;11.09;41.91;100269.63;5129834;27;20069;-44
2024/03/18 09:13:32;;;;;;;8.27;3.35;;;;;;;10.72;41.55;100268.38;5131515;27;20123;-46
2024/03/18 09:16:00;;;;;;;9.88;2.83;;;;;;;10.96;41.78;100257.16;5131002;27;20093;-45
2024/03/18 09:18:29;;;;;;;5.30;2.55;;;;;;;10.62;41.66;100266.38;5130943;27;20035;-45
2024/03/18 09:20:57;;;;;;;8.02;2.30;;;;;;;11.05;41.51;100277.94;5131057;27;20044;-45
2024/03/18 09:23:25;;;;;;;7.60;2.50;;;;;;;10.70;40.71;100278.28;5128247;27;20456;-45
2024/03/18 09:25:52;;;;;;;6.47;2.42;;;;;;;10.83;40.67;100265.06;5131265;27;20139;-46
2024/03/18 09:28:19;;;;;;;7.57;2.60;;;;;;;10.63;41.35;100258.28;5130880;27;20565;-45
2024/03/18 09:30:46;;;;;;;8.07;2.90;;;;;;;11.20;41.26;100265.47;5130809;27;20081;-46
2024/03/18 09:33:14;;;;;;;8.82;3.05;;;;;;;11.49;41.73;100251.13;5131257;27;20062;-46
2024/03/18 09:35:43;;;;;;;7.43;3.28;;;;;;;11.51;41.87;100256.38;5130680;27;20054;-45
2024/03/18 09:38:11;;;;;;;7.50;2.92;;;;;;;11.39;40.08;100250.88;5130650;27;20161;-46
2024/03/18 09:40:38;;;;;;;8.38;2.60;;;;;;;11.27;41.86;100250.75;5130993;27;20043;-46
2024/03/18 09:43:06;;;;;;;10.38;3.05;;;;;;;11.38;42.13;100254.47;5125348;27;20476;-45
2024/03/18 09:45:33;;;;;;;6.75;2.58;;;;;;;11.60;41.64;100245.97;5130868;27;20078;-44
2024/03/18 09:48:01;;;;;;;8.45;2.80;;;;;;;11.60;40.55;100237.94;5130946;27;20039;-44
2024/03/18 09:50:29;;;;;;;7.00;2.90;;;;;;;11.16;40.67;100241.63;5130464;27;20100;-45
2024/03/18 09:52:58;;;;;;;8.52;2.70;;;;;;;11.29;40.13;100239.06;5130876;27;20146;-46
2024/03/18 09:55:27;;;;;;;6.80;2.53;;;;;;;11.32;39.98;100238.00;5131053;27;20125;-46
2024/03/18 09:57:56;;;;;;;5.70;2.47;;;;;;;11.59;40.51;100238.03;5127015;27;20137;-45
2024/03/18 10:00:24;;;;;;;7.68;3.40;;;;;;;11.60;41.42;100237.09;5124848;27;20561;-45
2024/03/18 10:02:51;;;;;;;8.45;2.80;;;;;;;11.86;40.84;100227.38;5119912;27;20498;-45
2024/03/18 10:05:19;;;;;;;7.35;2.70;;;;;;;11.62;39.40;100224.47;5128728;27;20080;-44
2024/03/18 10:07:46;;;;;;;7.57;2.67;;;;;;;11.39;40.40;100218.81;5131349;27;20039;-45
2024/03/18 10:10:17;;;;;;;8.40;2.88;;;;;;;11.60;40.86;100215.72;5130653;27;20043;-45
2024/03/18 10:12:48;;;;;;;9.82;3.10;;;;;;;11.97;40.65;100212.38;5130972;27;20054;-45
2024/03/18 10:15:17;;;;;;;7.45;3.20;;;;;;;11.12;41.47;100218.75;5130009;27;20055;-45
2024/03/18 10:17:45;;;;;;;6.95;2.97;;;;;;;11.02;42.15;100209.59;5131796;27;20050;-45
2024/03/18 10:20:20;;;;;;;7.72;2.85;;;;;;;11.70;41.54;100208.81;5141796;27;20051;-45
2024/03/18 10:22:48;;;;;;;6.80;2.85;;;;;;;11.95;41.38;100208.06;5138864;27;20415;-45
2024/03/18 10:25:21;;;;;;;7.53;2.80;;;;;;;12.04;41.94;100207.44;5139298;27;20042;-44
2024/03/18 10:27:49;;;;;;;8.77;3.20;;;;;;;12.24;41.33;100211.47;5138974;27;20050;-44
2024/03/18 10:30:17;;;;;;;10.52;3.40;;;;;;;12.10;40.72;100214.22;5145873;27;20111;-45
2024/03/18 10:32:45;;;;;;;10.05;3.40;;;;;;;12.04;41.81;100216.31;5130331;27;20051;-44
2024/03/18 10:35:26;;;;;;;8.45;3.40;;;;;;;12.33;41.08;100210.84;5129949;27;20071;-46
2024/03/18 10:37:57;;;;;;;6.82;3.15;;;;;;;12.23;41.55;100215.09;5130640;27;20427;-44
2024/03/18 10:40:34;;;;;;;10.40;3.80;;;;;;;12.32;41.41;100203.78;5130758;27;20070;-47
2024/03/18 10:43:04;;;;;;;7.95;3.13;;;;;;;12.51;40.98;100209.56;5130793;27;20039;-43
2024/03/18 10:45:32;;;;;;;7.50;2.75;;;;;;;12.60;40.96;100202.75;5130996;27;20118;-45
2024/03/18 10:48:04;;;;;;;8.40;3.28;;;;;;;12.28;40.69;100202.28;5129997;27;20067;-44
2024/03/18 10:50:32;;;;;;;5.95;2.85;;;;;;;12.52;40.28;100195.22;5130337;27;20047;-46
2024/03/18 10:52:59;;;;;;;6.68;2.88;;;;;;;12.57;40.59;100190.44;5130149;28;20039;-47
2024/03/18 10:55:32;;;;;;;8.65;3.20;;;;;;;12.60;40.10;100187.53;5130234;28;20054;-46
2024/03/18 10:58:02;;;;;;;8.32;3.15;;;;;;;12.55;39.64;100188.84;5130688;28;20086;-44
2024/03/18 11:00:30;;;;;;;6.57;2.95;;;;;;;12.28;39.60;100192.44;5130859;28;20095;-45
2024/03/18 11:02:59;;;;;;;6.57;3.05;;;;;;;12.41;39.69;100184.44;5130968;27;20039;-45
2024/03/18 11:05:28;;;;;;;6.88;2.75;;;;;;;12.34;39.16;100191.16;5130148;28;20099;-47
2024/03/18 11:07:59;;;;;;;8.57;2.95;;;;;;;12.22;39.23;100187.50;5130699;28;20047;-47
2024/03/18 11:10:30;;;;;;;6.18;2.50;;;;;;;12.35;39.11;100184.84;5130841;27;20070;-45
2024/03/18 11:13:07;;;;;;;10.15;3.00;;;;;;;12.67;39.17;100181.78;5131482;28;20053;-46
2024/03/18 11:15:35;;;;;;;8.32;3.08;;;;;;;12.69;39.32;100175.34;5127415;28;20531;-45
2024/03/18 11:18:06;;;;;;;8.50;3.10;;;;;;;12.78;38.86;100180.03;5130401;28;20143;-46
2024/03/18 11:20:45;;;;;;;8.85;2.80;;;;;;;12.94;39.42;100163.78;5130620;28;20409;-47
2024/03/18 11:23:16;;;;;;;7.10;2.50;;;;;;;12.87;38.34;100173.19;5129534;28;20047;-46
2024/03/18 11:25:52;;;;;;;5.60;2.78;;;;;;;12.34;37.80;100164.41;5129630;28;20054;-45
2024/03/18 11:28:20;;;;;;;6.47;2.58;;;;;;;12.66;37.98;100164.88;5130415;28;20043;-46
2024/03/18 11:30:48;;;;;;;6.82;2.65;;;;;;;12.90;37.68;100156.91;5130147;28;20077;-46
2024/03/18 11:33:16;;;;;;;6.35;2.50;;;;;;;12.97;37.89;100158.19;5129726;28;20503;-45